createdAt,value
2022-12-03T00:00:01.135Z,8.15
2022-12-03T00:02:32.357Z,7.50
2022-12-03T00:04:59.750Z,7.32
2022-12-03T00:07:27.041Z,7.80
2022-12-03T00:09:54.368Z,7.30
2022-12-03T00:12:21.377Z,7.43
2022-12-03T00:14:48.696Z,7.53
2022-12-03T00:17:16.061Z,7.15
2022-12-03T00:19:43.246Z,6.95
2022-12-03T00:22:12.639Z,7.55
2022-12-03T00:24:40.080Z,7.13
2022-12-03T00:27:07.121Z,7.55
2022-12-03T00:29:34.188Z,7.45
2022-12-03T00:32:01.393Z,6.72
2022-12-03T00:34:28.494Z,7.45
2022-12-03T00:36:55.515Z,7.57
2022-12-03T00:39:22.686Z,7.03
2022-12-03T00:41:49.793Z,6.63
2022-12-03T00:44:18.313Z,7.40
2022-12-03T00:46:45.427Z,7.43
2022-12-03T00:49:12.681Z,7.65
2022-12-03T00:51:39.788Z,6.53
2022-12-03T00:54:06.923Z,7.57
2022-12-03T00:56:35.290Z,6.68
2022-12-03T00:59:02.351Z,7.22
2022-12-03T01:01:29.481Z,7.05
2022-12-03T01:03:56.749Z,6.60
2022-12-03T01:06:23.856Z,6.82
2022-12-03T01:08:50.939Z,7.70
2022-12-03T01:11:36.522Z,7.40
2022-12-03T01:16:31.294Z,6.68
2022-12-03T01:18:59.135Z,6.60
2022-12-03T01:21:26.215Z,6.35
2022-12-03T01:23:53.297Z,7.10
2022-12-03T01:26:20.562Z,6.70
2022-12-03T01:28:47.641Z,6.85
2022-12-03T01:31:33.829Z,6.70
2022-12-03T01:34:01.207Z,6.53
2022-12-03T01:36:29.353Z,7.15
2022-12-03T01:38:56.448Z,6.63
2022-12-03T01:41:25.392Z,6.22
2022-12-03T01:43:54.404Z,6.63
2022-12-03T01:46:24.129Z,6.78
2022-12-03T01:48:53.952Z,6.40
2022-12-03T01:51:21.378Z,6.20
2022-12-03T01:53:49.033Z,6.65
2022-12-03T01:56:17.402Z,6.03
2022-12-03T01:58:45.924Z,5.90
2022-12-03T02:01:15.894Z,6.20
2022-12-03T02:03:44.413Z,6.35
2022-12-03T02:06:20.624Z,6.57
2022-12-03T02:08:48.618Z,6.10
2022-12-03T02:11:25.564Z,6.30
2022-12-03T02:14:16.847Z,6.07
2022-12-03T02:16:44.698Z,6.10
2022-12-03T02:19:41.157Z,6.00
2022-12-03T02:22:20.457Z,6.30
2022-12-03T02:25:03.910Z,6.35
2022-12-03T02:27:30.996Z,6.35
2022-12-03T02:29:58.281Z,6.57
2022-12-03T02:32:25.919Z,5.95
2022-12-03T02:34:53.444Z,6.35
2022-12-03T02:37:29.797Z,6.18
2022-12-03T02:40:01.701Z,6.47
2022-12-03T02:42:36.897Z,6.78
2022-12-03T02:45:11.588Z,6.47
2022-12-03T02:47:45.972Z,6.30
2022-12-03T02:50:17.629Z,6.15
2022-12-03T02:52:46.664Z,6.03
2022-12-03T02:55:15.804Z,6.55
2022-12-03T02:57:46.441Z,7.00
2022-12-03T03:00:14.341Z,6.15
2022-12-03T03:02:42.794Z,6.50
2022-12-03T03:05:25.660Z,6.90
2022-12-03T03:07:52.815Z,6.53
2022-12-03T03:10:23.144Z,6.93
2022-12-03T03:12:52.871Z,6.35
2022-12-03T03:15:20.971Z,6.55
2022-12-03T03:17:50.037Z,6.55
2022-12-03T03:20:17.718Z,6.40
2022-12-03T03:22:44.897Z,7.50
2022-12-03T03:25:18.929Z,6.40
2022-12-03T03:27:46.936Z,6.70
2022-12-03T03:30:14.832Z,6.75
2022-12-03T03:32:43.079Z,6.85
2022-12-03T03:35:11.619Z,6.70
2022-12-03T03:37:39.235Z,6.70
2022-12-03T03:40:07.862Z,6.25
2022-12-03T03:42:35.682Z,6.80
2022-12-03T03:45:02.867Z,5.97
2022-12-03T03:47:30.807Z,6.50
2022-12-03T03:49:57.950Z,6.53
2022-12-03T03:52:25.331Z,6.50
2022-12-03T03:54:52.793Z,6.43
2022-12-03T03:57:20.342Z,6.25
2022-12-03T03:59:47.461Z,6.43
2022-12-03T04:02:22.774Z,6.57
2022-12-03T04:04:52.220Z,6.90
2022-12-03T04:07:19.807Z,6.90
2022-12-03T04:09:47.000Z,6.95
2022-12-03T04:12:32.765Z,6.85
2022-12-03T04:15:01.269Z,7.53
2022-12-03T04:17:28.625Z,7.32
2022-12-03T04:19:56.039Z,7.47
2022-12-03T04:22:41.360Z,7.07
2022-12-03T04:30:40.630Z,6.00
2022-12-03T04:33:26.175Z,6.80
2022-12-03T04:38:20.530Z,6.60
2022-12-03T04:41:04.393Z,7.53
2022-12-03T04:43:33.866Z,7.45
2022-12-03T04:46:01.704Z,7.78
2022-12-03T04:48:30.200Z,7.80
2022-12-03T04:50:57.454Z,7.88
2022-12-03T04:53:24.661Z,7.57
2022-12-03T04:55:52.944Z,8.00
2022-12-03T04:58:20.116Z,8.30
2022-12-03T05:00:47.386Z,8.10
2022-12-03T05:03:14.555Z,8.07
2022-12-03T05:05:42.057Z,8.68
2022-12-03T05:08:09.420Z,8.30
2022-12-03T05:10:36.500Z,8.88
2022-12-03T05:13:03.703Z,8.00
2022-12-03T05:15:30.780Z,8.60
2022-12-03T05:17:57.913Z,9.00
2022-12-03T05:20:46.979Z,8.63
2022-12-03T05:23:18.573Z,8.30
2022-12-03T05:25:45.788Z,8.63
2022-12-03T05:28:13.203Z,9.07
2022-12-03T05:30:40.552Z,9.80
2022-12-03T05:33:08.054Z,9.52
2022-12-03T05:35:35.320Z,9.38
2022-12-03T05:38:02.353Z,9.27
2022-12-03T05:40:29.548Z,9.73
2022-12-03T05:43:01.444Z,9.07
2022-12-03T05:45:31.480Z,9.65
2022-12-03T05:48:00.521Z,9.23
2022-12-03T05:50:30.330Z,8.90
2022-12-03T05:52:58.061Z,9.05
2022-12-03T05:55:26.128Z,10.07
2022-12-03T05:57:53.375Z,9.68
2022-12-03T06:00:26.350Z,9.05
2022-12-03T06:02:54.184Z,10.15
2022-12-03T06:05:22.500Z,10.20
2022-12-03T06:07:51.271Z,9.32
2022-12-03T06:10:23.529Z,8.88
2022-12-03T06:12:51.290Z,9.32
2022-12-03T06:15:19.139Z,8.90
2022-12-03T06:17:46.768Z,8.93
2022-12-03T06:20:17.077Z,9.13
2022-12-03T06:22:44.275Z,8.85
2022-12-03T06:25:12.196Z,8.13
2022-12-03T06:27:41.295Z,8.25
2022-12-03T06:30:13.143Z,8.80
2022-12-03T06:32:41.709Z,8.57
2022-12-03T06:35:09.274Z,8.60
2022-12-03T06:37:36.346Z,8.18
2022-12-03T06:40:04.559Z,8.35
2022-12-03T06:42:31.650Z,7.80
2022-12-03T06:44:58.803Z,7.93
2022-12-03T06:47:26.073Z,7.57
2022-12-03T06:49:53.190Z,8.38
2022-12-03T06:52:20.855Z,7.75
2022-12-03T06:54:47.917Z,8.05
2022-12-03T06:57:15.751Z,7.35
2022-12-03T06:59:42.932Z,7.95
2022-12-03T07:02:11.650Z,7.57
2022-12-03T07:04:42.138Z,7.90
2022-12-03T07:07:13.114Z,7.63
2022-12-03T07:09:40.330Z,7.53
2022-12-03T07:12:07.487Z,7.38
2022-12-03T07:14:34.688Z,7.25
2022-12-03T07:17:02.328Z,6.88
2022-12-03T07:19:32.723Z,7.20
2022-12-03T07:22:01.036Z,7.25
2022-12-03T07:24:28.813Z,7.07
2022-12-03T07:26:56.472Z,7.55
2022-12-03T07:29:24.048Z,7.70
2022-12-03T07:31:51.677Z,7.80
2022-12-03T07:34:18.968Z,7.00
2022-12-03T07:36:46.309Z,7.80
2022-12-03T07:39:14.047Z,7.40
2022-12-03T07:41:41.136Z,8.07
2022-12-03T07:44:14.248Z,7.75
2022-12-03T07:46:42.530Z,7.22
2022-12-03T07:49:09.963Z,7.38
2022-12-03T07:51:37.263Z,8.02
2022-12-03T07:54:05.165Z,7.50
2022-12-03T07:56:32.281Z,7.35
2022-12-03T07:59:00.709Z,7.63
2022-12-03T08:01:27.865Z,7.07
2022-12-03T08:03:55.328Z,6.90
2022-12-03T08:06:23.228Z,6.40
2022-12-03T08:08:50.484Z,7.35
2022-12-03T08:11:18.011Z,7.20
2022-12-03T08:13:45.039Z,6.65
2022-12-03T08:16:18.336Z,6.50
2022-12-03T08:18:47.122Z,6.88
2022-12-03T08:21:17.209Z,6.20
2022-12-03T08:23:44.714Z,6.35
2022-12-03T08:26:25.362Z,6.10
2022-12-03T08:28:53.352Z,6.70
2022-12-03T08:31:32.850Z,6.30
2022-12-03T08:34:19.701Z,6.13
2022-12-03T08:36:48.257Z,6.13
2022-12-03T08:39:34.000Z,6.53
2022-12-03T08:42:30.761Z,6.45
2022-12-03T08:45:32.443Z,6.18
2022-12-03T08:48:07.632Z,6.18
2022-12-03T08:53:29.418Z,6.38
2022-12-03T08:56:05.082Z,6.13
2022-12-03T08:58:43.813Z,6.15
2022-12-03T09:01:10.962Z,6.47
2022-12-03T09:03:42.875Z,6.35
2022-12-03T09:06:11.610Z,6.35
2022-12-03T09:08:39.070Z,5.78
2022-12-03T09:11:06.340Z,6.30
2022-12-03T09:13:33.429Z,5.80
2022-12-03T09:16:00.525Z,5.93
2022-12-03T09:18:27.851Z,6.22
2022-12-03T09:20:56.568Z,6.60
2022-12-03T09:23:24.010Z,6.50
2022-12-03T09:25:51.062Z,6.32
2022-12-03T09:28:18.272Z,5.53
2022-12-03T09:30:45.555Z,6.47
2022-12-03T09:33:14.897Z,6.40
2022-12-03T09:35:42.080Z,5.68
2022-12-03T09:38:09.386Z,6.00
2022-12-03T09:40:36.722Z,6.18
2022-12-03T09:43:04.734Z,5.82
2022-12-03T09:45:31.928Z,5.95
2022-12-03T09:48:01.639Z,5.65
2022-12-03T09:50:29.463Z,5.50
2022-12-03T09:53:00.201Z,5.53
2022-12-03T09:55:28.706Z,4.93
2022-12-03T09:57:58.131Z,5.30
2022-12-03T10:00:28.443Z,4.95
2022-12-03T10:02:59.694Z,5.22
2022-12-03T10:05:28.651Z,5.07
2022-12-03T10:08:00.529Z,5.47
2022-12-03T10:10:27.989Z,5.28
2022-12-03T10:12:55.274Z,4.60
2022-12-03T10:15:23.731Z,5.05
2022-12-03T10:17:56.465Z,4.68
2022-12-03T10:20:26.137Z,4.88
2022-12-03T10:22:53.402Z,4.55
2022-12-03T10:25:22.903Z,5.13
2022-12-03T10:28:07.113Z,4.93
2022-12-03T10:30:34.535Z,4.35
2022-12-03T10:33:17.363Z,4.22
2022-12-03T10:35:46.233Z,4.60
2022-12-03T10:38:25.339Z,4.18
2022-12-03T10:40:52.882Z,3.95
2022-12-03T10:43:19.919Z,4.47
2022-12-03T10:46:09.752Z,4.28
2022-12-03T10:48:36.988Z,4.13
2022-12-03T10:51:17.087Z,3.70
2022-12-03T10:53:44.618Z,4.20
2022-12-03T10:56:24.575Z,4.00
2022-12-03T10:58:52.129Z,4.03
2022-12-03T11:01:25.602Z,4.30
2022-12-03T11:03:54.569Z,3.80
2022-12-03T11:06:23.635Z,3.90
2022-12-03T11:08:58.540Z,4.18
2022-12-03T11:11:31.297Z,4.35
2022-12-03T11:14:02.862Z,4.70
2022-12-03T11:16:42.124Z,3.90
2022-12-03T11:19:18.431Z,4.13
2022-12-03T11:22:05.206Z,4.10
2022-12-03T11:24:34.927Z,4.50
2022-12-03T11:27:02.032Z,4.90
2022-12-03T11:30:08.214Z,4.50
2022-12-03T11:32:38.473Z,5.18
2022-12-03T11:35:25.870Z,4.57
2022-12-03T11:37:53.199Z,4.55
2022-12-03T11:40:20.338Z,4.30
2022-12-03T11:42:48.909Z,4.30
2022-12-03T11:45:33.395Z,4.40
2022-12-03T11:48:06.045Z,4.00
2022-12-03T11:50:41.090Z,4.55
2022-12-03T11:55:38.987Z,3.92
2022-12-03T11:58:17.207Z,3.70
2022-12-03T12:00:53.052Z,4.40
2022-12-03T12:03:34.844Z,3.92
2022-12-03T12:06:13.260Z,3.90
2022-12-03T12:08:52.623Z,4.25
2022-12-03T12:11:31.838Z,4.30
2022-12-03T12:14:13.263Z,4.28
2022-12-03T12:16:42.820Z,4.22
2022-12-03T12:19:38.444Z,4.25
2022-12-03T12:22:19.993Z,4.05
2022-12-03T12:24:51.873Z,3.92
2022-12-03T12:27:29.673Z,3.85
2022-12-03T12:29:59.065Z,4.38
2022-12-03T12:32:35.502Z,4.00
2022-12-03T12:35:24.653Z,3.72
2022-12-03T12:38:00.896Z,4.20
2022-12-03T12:40:31.364Z,4.30
2022-12-03T12:43:08.208Z,3.88
2022-12-03T12:45:39.988Z,3.85
2022-12-03T12:48:12.397Z,4.20
2022-12-03T12:50:40.738Z,3.90
2022-12-03T12:53:11.420Z,4.75
2022-12-03T12:55:39.834Z,4.68
2022-12-03T12:58:19.080Z,5.10
2022-12-03T13:00:55.020Z,5.20
2022-12-03T13:03:26.041Z,4.97
2022-12-03T13:05:56.430Z,4.78
2022-12-03T13:08:34.098Z,4.80
2022-12-03T13:11:03.097Z,4.32
2022-12-03T13:13:31.931Z,4.30
2022-12-03T13:16:07.377Z,4.50
2022-12-03T13:18:54.929Z,4.50
2022-12-03T13:21:44.403Z,4.53
2022-12-03T13:24:32.853Z,4.47
2022-12-03T13:27:05.320Z,4.22
2022-12-03T13:29:32.571Z,4.38
2022-12-03T13:32:20.266Z,4.50
2022-12-03T13:34:50.581Z,4.82
2022-12-03T13:37:23.880Z,4.75
2022-12-03T13:39:56.883Z,4.80
2022-12-03T13:42:42.049Z,5.18
2022-12-03T13:45:18.128Z,5.10
2022-12-03T13:47:50.569Z,4.75
2022-12-03T13:50:33.509Z,4.88
2022-12-03T13:53:03.402Z,5.00
2022-12-03T13:55:32.157Z,5.35
2022-12-03T13:57:59.478Z,5.28
2022-12-03T14:00:26.807Z,4.97
2022-12-03T14:02:54.855Z,5.50
2022-12-03T14:05:22.195Z,4.40
2022-12-03T14:07:49.393Z,4.60
2022-12-03T14:10:17.007Z,4.75
2022-12-03T14:12:44.347Z,4.72
2022-12-03T14:15:11.536Z,4.65
2022-12-03T14:17:39.214Z,4.63
2022-12-03T14:20:08.295Z,5.15
2022-12-03T14:22:38.182Z,4.63
2022-12-03T14:25:07.168Z,4.70
2022-12-03T14:27:34.577Z,4.80
2022-12-03T14:30:01.730Z,4.90
2022-12-03T14:32:29.390Z,5.00
2022-12-03T14:34:57.067Z,4.50
2022-12-03T14:37:24.092Z,4.80
2022-12-03T14:39:51.316Z,4.68
2022-12-03T14:42:18.570Z,4.63
2022-12-03T14:44:48.309Z,4.30
2022-12-03T14:47:20.264Z,4.32
2022-12-03T14:49:47.734Z,4.22
2022-12-03T14:52:15.257Z,4.43
2022-12-03T14:54:43.007Z,4.50
2022-12-03T14:57:12.794Z,4.22
2022-12-03T14:59:41.638Z,4.60
2022-12-03T15:02:10.187Z,4.50
2022-12-03T15:04:38.262Z,4.60
2022-12-03T15:07:07.143Z,4.22
2022-12-03T15:09:35.029Z,4.88
2022-12-03T15:12:03.534Z,4.20
2022-12-03T15:14:32.675Z,4.30
2022-12-03T15:17:02.005Z,4.00
2022-12-03T15:19:30.421Z,4.50
2022-12-03T15:22:00.302Z,4.15
2022-12-03T15:24:27.523Z,4.20
2022-12-03T15:26:55.952Z,4.00
2022-12-03T15:29:23.727Z,4.15
2022-12-03T15:31:50.953Z,4.07
2022-12-03T15:34:22.525Z,4.45
2022-12-03T15:36:51.288Z,4.35
2022-12-03T15:39:18.655Z,4.30
2022-12-03T15:41:45.823Z,4.40
2022-12-03T15:44:12.862Z,4.05
2022-12-03T15:46:40.176Z,3.92
2022-12-03T15:49:07.414Z,3.97
2022-12-03T15:51:34.533Z,4.38
2022-12-03T15:54:01.717Z,4.85
2022-12-03T15:56:28.974Z,4.07
2022-12-03T15:58:56.058Z,3.65
2022-12-03T16:01:23.316Z,4.05
2022-12-03T16:03:50.494Z,4.22
2022-12-03T16:06:18.310Z,4.47
2022-12-03T16:08:46.388Z,4.18
2022-12-03T16:11:13.516Z,3.97
2022-12-03T16:13:40.786Z,4.05
2022-12-03T16:16:08.716Z,3.80
2022-12-03T16:18:35.843Z,3.95
2022-12-03T16:21:03.353Z,4.07
2022-12-03T16:23:30.453Z,4.13
2022-12-03T16:25:58.270Z,4.05
2022-12-03T16:28:26.550Z,3.90
2022-12-03T16:30:54.076Z,4.07
2022-12-03T16:33:27.076Z,4.10
2022-12-03T16:35:54.983Z,3.88
2022-12-03T16:38:22.058Z,4.10
2022-12-03T16:40:49.516Z,3.70
2022-12-03T16:43:16.745Z,4.20
2022-12-03T16:46:03.081Z,4.20
2022-12-03T16:48:30.487Z,4.18
2022-12-03T16:50:57.647Z,3.80
2022-12-03T16:53:24.831Z,4.22
2022-12-03T16:55:51.893Z,4.30
2022-12-03T16:58:21.586Z,4.45
2022-12-03T17:00:49.827Z,4.55
2022-12-03T17:03:18.068Z,4.13
2022-12-03T17:05:46.210Z,4.40
2022-12-03T17:08:14.276Z,4.32
2022-12-03T17:10:41.761Z,4.18
2022-12-03T17:13:10.558Z,4.03
2022-12-03T17:15:39.081Z,4.20
2022-12-03T17:18:07.558Z,4.20
2022-12-03T17:20:35.859Z,4.10
2022-12-03T17:23:03.897Z,3.45
2022-12-03T17:25:31.148Z,3.28
2022-12-03T17:27:58.455Z,3.33
2022-12-03T17:30:25.748Z,3.55
2022-12-03T17:32:53.187Z,3.55
2022-12-03T17:35:20.434Z,3.53
2022-12-03T17:37:47.710Z,3.40
2022-12-03T17:40:17.380Z,3.60
2022-12-03T17:42:45.378Z,3.38
2022-12-03T17:45:13.466Z,3.15
2022-12-03T17:47:40.949Z,3.63
2022-12-03T17:50:08.759Z,3.60
2022-12-03T17:52:35.867Z,3.30
2022-12-03T17:55:14.216Z,3.50
2022-12-03T17:57:45.174Z,3.30
2022-12-03T18:00:12.812Z,3.20
2022-12-03T18:02:40.692Z,3.28
2022-12-03T18:05:08.271Z,3.17
2022-12-03T18:07:35.734Z,2.78
2022-12-03T18:10:03.081Z,3.20
2022-12-03T18:12:30.955Z,3.50
2022-12-03T18:14:58.310Z,3.60
2022-12-03T18:17:25.506Z,4.00
2022-12-03T18:19:53.084Z,3.30
2022-12-03T18:22:20.659Z,3.90
2022-12-03T18:24:51.514Z,3.22
2022-12-03T18:27:20.925Z,3.00
2022-12-03T18:29:48.395Z,3.20
2022-12-03T18:32:28.300Z,2.70
2022-12-03T18:34:57.342Z,3.08
2022-12-03T18:37:29.016Z,2.80
2022-12-03T18:39:57.460Z,3.25
2022-12-03T18:42:25.236Z,3.28
2022-12-03T18:44:54.926Z,3.00
2022-12-03T18:47:25.043Z,3.15
2022-12-03T18:49:52.856Z,2.88
2022-12-03T18:52:22.192Z,3.10
2022-12-03T18:54:49.902Z,2.80
2022-12-03T18:57:17.830Z,2.95
2022-12-03T18:59:45.255Z,2.83
2022-12-03T19:02:32.480Z,2.67
2022-12-03T19:05:04.500Z,2.92
2022-12-03T19:07:31.595Z,2.83
2022-12-03T19:09:58.922Z,2.70
2022-12-03T19:12:26.232Z,3.08
2022-12-03T19:14:53.306Z,2.60
2022-12-03T19:17:21.603Z,2.58
2022-12-03T19:19:48.828Z,2.40
2022-12-03T19:22:15.934Z,2.63
2022-12-03T19:24:43.831Z,2.75
2022-12-03T19:27:11.012Z,2.30
2022-12-03T19:29:38.514Z,2.47
2022-12-03T19:32:05.780Z,2.30
2022-12-03T19:34:33.293Z,2.40
2022-12-03T19:37:00.512Z,2.35
2022-12-03T19:39:27.610Z,2.45
2022-12-03T19:41:54.710Z,2.10
2022-12-03T19:44:22.402Z,2.72
2022-12-03T19:46:51.288Z,2.40
2022-12-03T19:49:21.053Z,2.17
2022-12-03T19:51:49.732Z,2.35
2022-12-03T19:54:19.248Z,2.28
2022-12-03T19:56:48.351Z,1.98
2022-12-03T19:59:17.546Z,1.75
2022-12-03T20:01:44.992Z,2.53
2022-12-03T20:04:13.219Z,2.22
2022-12-03T20:06:41.073Z,1.70
2022-12-03T20:09:12.126Z,2.50
2022-12-03T20:11:41.617Z,1.90
2022-12-03T20:14:12.921Z,1.90
2022-12-03T20:16:40.665Z,2.00
2022-12-03T20:19:10.806Z,1.95
2022-12-03T20:21:39.139Z,2.00
2022-12-03T20:24:07.321Z,1.90
2022-12-03T20:26:34.863Z,1.80
2022-12-03T20:29:02.297Z,1.85
2022-12-03T20:31:31.757Z,1.80
2022-12-03T20:34:02.301Z,1.50
2022-12-03T20:36:31.771Z,1.60
2022-12-03T20:39:02.323Z,1.75
2022-12-03T20:41:29.882Z,1.80
2022-12-03T20:43:57.275Z,1.55
2022-12-03T20:46:29.355Z,1.70
2022-12-03T20:48:57.810Z,1.65
2022-12-03T20:51:28.216Z,1.52
2022-12-03T20:53:56.316Z,1.73
2022-12-03T20:56:31.424Z,1.60
2022-12-03T20:59:08.343Z,1.27
2022-12-03T21:01:36.515Z,1.80
2022-12-03T21:04:05.384Z,1.30
2022-12-03T21:06:35.036Z,1.58
2022-12-03T21:09:04.637Z,1.55
2022-12-03T21:11:34.044Z,1.40
2022-12-03T21:14:01.168Z,1.42
2022-12-03T21:17:06.019Z,1.30
2022-12-03T21:19:20.810Z,1.40
2022-12-03T21:21:48.656Z,1.40
2022-12-03T21:24:15.765Z,1.55
2022-12-03T21:26:43.029Z,1.38
2022-12-03T21:29:10.321Z,1.20
2022-12-03T21:31:39.914Z,1.20
2022-12-03T21:34:08.901Z,1.50
2022-12-03T21:36:36.363Z,1.63
2022-12-03T21:39:05.269Z,1.48
2022-12-03T21:41:32.682Z,1.30
2022-12-03T21:43:59.811Z,1.30
2022-12-03T21:47:12.751Z,1.38
2022-12-03T21:49:14.688Z,1.20
2022-12-03T21:51:41.895Z,1.40
2022-12-03T21:54:08.964Z,1.20
2022-12-03T21:56:36.572Z,1.48
2022-12-03T21:59:04.086Z,1.60
2022-12-03T22:01:31.360Z,1.40
2022-12-03T22:03:59.148Z,1.30
2022-12-03T22:06:26.290Z,1.40
2022-12-03T22:08:53.504Z,1.30
2022-12-03T22:11:23.859Z,1.30
2022-12-03T22:13:51.608Z,1.50
2022-12-03T22:16:20.755Z,1.33
2022-12-03T22:18:48.317Z,1.30
2022-12-03T22:21:18.354Z,1.33
2022-12-03T22:23:46.801Z,1.20
2022-12-03T22:26:16.532Z,1.30
2022-12-03T22:28:46.413Z,1.40
2022-12-03T22:31:14.440Z,1.40
2022-12-03T22:33:41.974Z,1.30
2022-12-03T22:36:18.066Z,1.40
2022-12-03T22:38:48.377Z,1.40
2022-12-03T22:41:16.652Z,1.50
2022-12-03T22:43:44.796Z,1.30
2022-12-03T22:46:12.984Z,1.40
2022-12-03T22:48:41.934Z,1.30
2022-12-03T22:51:18.686Z,1.40
2022-12-03T22:53:46.044Z,1.50
2022-12-03T22:56:13.885Z,1.42
2022-12-03T22:58:41.419Z,1.55
2022-12-03T23:01:09.020Z,1.33
2022-12-03T23:03:36.925Z,1.65
2022-12-03T23:06:12.275Z,1.35
2022-12-03T23:08:39.783Z,1.23
2022-12-03T23:11:07.613Z,1.50
2022-12-03T23:13:35.897Z,1.33
2022-12-03T23:16:03.781Z,1.42
2022-12-03T23:18:31.201Z,1.80
2022-12-03T23:20:59.043Z,1.50
2022-12-03T23:23:28.264Z,1.38
2022-12-03T23:26:07.492Z,1.40
2022-12-03T23:28:39.093Z,1.90
2022-12-03T23:31:14.275Z,1.30
2022-12-03T23:36:08.684Z,1.40
2022-12-03T23:38:36.085Z,1.20
2022-12-03T23:41:12.204Z,1.50
2022-12-03T23:43:40.297Z,1.58
2022-12-03T23:46:12.949Z,1.45
2022-12-03T23:48:40.455Z,1.60
2022-12-03T23:51:10.587Z,1.50
2022-12-03T23:53:38.453Z,1.50
2022-12-03T23:56:17.997Z,1.40
2022-12-03T23:58:46.366Z,1.35
